CCA5226 EHAM-EGLL
Flight info
| Callsign | CCA5226 |
|---|---|
| Flight time | N/A |
| Altitude | 24000 |
| Route | IDRID L980 LOGAN |
| Aircraft | B738/M-SDE2E3FGHIRWXY/SB1 |
Departure
| Time | 2026-04-29 07:30 |
|---|---|
| Airport | Amsterdam Airport Schiphol (EHAM) |
Arrival
| Time | N/A |
|---|---|
| Airport | London Heathrow Airport (EGLL) |
| Time | Latitude | Longitude | Altitude | Speed | Heading |
|---|---|---|---|---|---|
| 2026-04-29 06:46 | 52.31226 | 4.74748 | -4 ft | 0 kts | 94° |
| 2026-04-29 07:00 | 52.31226 | 4.74747 | -4 ft | 0 kts | 94° |
| 2026-04-29 07:00 | 52.31226 | 4.74724 | -4 ft | 2 kts | 94° |
| 2026-04-29 07:00 | 52.31227 | 4.74699 | -4 ft | 2 kts | 94° |
| 2026-04-29 07:00 | 52.31228 | 4.74682 | -4 ft | 0 kts | 94° |
| 2026-04-29 07:01 | 52.31229 | 4.74668 | -4 ft | 2 kts | 88° |
| 2026-04-29 07:01 | 52.31224 | 4.74637 | -4 ft | 2 kts | 68° |
| 2026-04-29 07:01 | 52.31218 | 4.74616 | -4 ft | 2 kts | 53° |
| 2026-04-29 07:01 | 52.31207 | 4.74598 | -4 ft | 2 kts | 39° |
| 2026-04-29 07:02 | 52.31195 | 4.74584 | -4 ft | 2 kts | 25° |
| 2026-04-29 07:02 | 52.31181 | 4.74576 | -4 ft | 2 kts | 11° |
| 2026-04-29 07:02 | 52.31172 | 4.74574 | -4 ft | 1 kts | 3° |
| 2026-04-29 07:02 | 52.31167 | 4.74574 | -4 ft | 0 kts | 3° |
| 2026-04-29 07:03 | 52.31167 | 4.74573 | -4 ft | 0 kts | 3° |
| 2026-04-29 07:25 | 52.31186 | 4.74575 | -4 ft | 6 kts | 1° |
| 2026-04-29 07:25 | 52.31225 | 4.74573 | -4 ft | 0 kts | 359° |
| 2026-04-29 07:25 | 52.31258 | 4.74573 | -4 ft | 8 kts | 1° |
| 2026-04-29 07:26 | 52.31303 | 4.74576 | -4 ft | 10 kts | 3° |
| 2026-04-29 07:26 | 52.31404 | 4.74632 | -5 ft | 13 kts | 34° |
| 2026-04-29 07:26 | 52.31461 | 4.74669 | -6 ft | 14 kts | 0° |
| 2026-04-29 07:26 | 52.31534 | 4.74663 | -7 ft | 0 kts | 356° |
| 2026-04-29 07:28 | 52.31575 | 4.74659 | -7 ft | 14 kts | 0° |
| 2026-04-29 07:29 | 52.31652 | 4.74718 | -7 ft | 22 kts | 57° |
| 2026-04-29 07:29 | 52.31675 | 4.74841 | -7 ft | 0 kts | 82° |
| 2026-04-29 07:29 | 52.31677 | 4.74986 | -7 ft | 36 kts | 87° |
| 2026-04-29 07:29 | 52.31694 | 4.75378 | 0 ft | 71 kts | 85° |
| 2026-04-29 07:30 | 52.31734 | 4.76503 | -6 ft | 124 kts | 89° |
| 2026-04-29 07:30 | 52.31793 | 4.78161 | 0 ft | 165 kts | 84° |
| 2026-04-29 07:30 | 52.31840 | 4.80721 | 661 ft | 169 kts | 91° |
| 2026-04-29 07:31 | 52.31164 | 4.83596 | 1623 ft | 188 kts | 131° |
| 2026-04-29 07:31 | 52.29994 | 4.84690 | 1629 ft | 212 kts | 158° |
| 2026-04-29 07:31 | 52.27745 | 4.84139 | 1604 ft | 272 kts | 211° |
| 2026-04-29 07:31 | 52.26830 | 4.82694 | 2072 ft | 275 kts | 232° |
| 2026-04-29 07:32 | 52.25935 | 4.80056 | 3058 ft | 256 kts | 234° |
| 2026-04-29 07:32 | 52.24722 | 4.78094 | 3786 ft | 251 kts | 204° |
| 2026-04-29 07:32 | 52.22539 | 4.76471 | 4123 ft | 268 kts | 201° |
| 2026-04-29 07:32 | 52.21430 | 4.75471 | 4144 ft | 285 kts | 208° |
| 2026-04-29 07:33 | 52.19999 | 4.73239 | 3971 ft | 287 kts | 235° |
| 2026-04-29 07:33 | 52.18744 | 4.69390 | 4330 ft | 294 kts | 242° |
| 2026-04-29 07:33 | 52.18119 | 4.67385 | 4824 ft | 297 kts | 241° |
| 2026-04-29 07:33 | 52.16826 | 4.63539 | 6005 ft | 294 kts | 239° |
| 2026-04-29 07:34 | 52.16146 | 4.61626 | 6480 ft | 297 kts | 238° |
| 2026-04-29 07:34 | 52.15091 | 4.58733 | 7265 ft | 298 kts | 238° |
| 2026-04-29 07:34 | 52.13665 | 4.54877 | 8262 ft | 302 kts | 238° |
| 2026-04-29 07:34 | 52.12952 | 4.52953 | 8734 ft | 304 kts | 238° |
| 2026-04-29 07:35 | 52.11864 | 4.50015 | 9114 ft | 308 kts | 239° |
| 2026-04-29 07:35 | 52.10849 | 4.46947 | 9134 ft | 307 kts | 248° |
| 2026-04-29 07:35 | 52.10294 | 4.43605 | 9143 ft | 305 kts | 264° |
| 2026-04-29 07:35 | 52.10101 | 4.40143 | 9151 ft | 309 kts | 269° |